createdAt,value
2022-11-10T08:11:59.737Z,10.89
2022-11-10T08:13:22.572Z,10.60
2022-11-10T08:14:44.296Z,10.51
2022-11-10T08:16:04.855Z,10.60
2022-11-10T08:17:26.360Z,10.82
2022-11-10T08:18:48.217Z,10.56
2022-11-10T08:20:11.081Z,10.64
2022-11-10T08:21:36.923Z,10.96
2022-11-10T08:23:00.027Z,11.10
2022-11-10T08:24:21.319Z,11.33
2022-11-10T08:25:42.148Z,11.31
2022-11-10T08:27:02.875Z,11.31
2022-11-10T08:28:24.720Z,11.30
2022-11-10T08:29:46.237Z,11.07
2022-11-10T08:31:07.684Z,11.09
2022-11-10T08:32:28.737Z,11.12
2022-11-10T08:33:50.178Z,11.25
2022-11-10T08:35:14.654Z,11.25
2022-11-10T08:36:38.108Z,11.28
2022-11-10T08:38:08.090Z,11.41
2022-11-10T08:39:38.663Z,11.58
2022-11-10T08:40:48.731Z,11.57
2022-11-10T08:42:10.517Z,11.57
2022-11-10T08:43:31.837Z,11.54
2022-11-10T08:44:53.256Z,11.30
2022-11-10T08:46:14.610Z,11.32
2022-11-10T08:47:35.797Z,11.20
2022-11-10T08:48:57.397Z,11.40
2022-11-10T08:50:18.722Z,11.47
2022-11-10T08:51:39.495Z,11.43
2022-11-10T08:53:08.365Z,11.55
2022-11-10T08:54:30.265Z,11.42
2022-11-10T08:55:53.561Z,11.27
2022-11-10T08:57:14.715Z,11.33
2022-11-10T08:58:47.263Z,11.27
2022-11-10T09:00:01.165Z,11.40
2022-11-10T09:01:22.655Z,11.38
2022-11-10T09:02:43.984Z,11.09
2022-11-10T09:04:05.534Z,11.30
2022-11-10T09:05:26.810Z,11.28
2022-11-10T09:06:48.319Z,11.21
2022-11-10T09:08:09.134Z,11.19
2022-11-10T09:09:30.719Z,11.12
2022-11-10T09:10:52.231Z,10.87
2022-11-10T09:12:14.374Z,10.97
2022-11-10T09:13:35.898Z,10.98
2022-11-10T09:14:57.623Z,11.18
2022-11-10T09:16:18.784Z,11.09
2022-11-10T09:17:41.190Z,11.00
2022-11-10T09:19:02.431Z,11.09
2022-11-10T09:20:23.786Z,11.18
2022-11-10T09:21:45.165Z,11.34
2022-11-10T09:23:10.233Z,11.47
2022-11-10T09:24:31.768Z,11.32
2022-11-10T09:25:54.438Z,11.23
2022-11-10T09:27:17.856Z,11.41
2022-11-10T09:28:39.019Z,11.20
2022-11-10T09:30:00.506Z,11.18
2022-11-10T09:31:21.348Z,11.35
2022-11-10T09:32:46.246Z,11.40
2022-11-10T09:34:07.898Z,11.23
2022-11-10T09:35:29.319Z,11.07
2022-11-10T09:36:49.714Z,11.05
2022-11-10T09:38:11.333Z,11.20
2022-11-10T09:39:32.870Z,11.32
2022-11-10T09:40:58.875Z,11.15
2022-11-10T09:42:28.133Z,11.25
2022-11-10T09:44:09.003Z,11.32
2022-11-10T09:45:36.426Z,11.07
2022-11-10T09:46:56.465Z,10.76
2022-11-10T09:48:23.924Z,11.11
2022-11-10T09:49:47.556Z,11.46
2022-11-10T09:51:09.982Z,11.46
2022-11-10T09:52:33.653Z,11.44
2022-11-10T09:53:59.559Z,11.40
2022-11-10T09:55:29.985Z,11.55
2022-11-10T09:56:54.049Z,11.45
2022-11-10T09:58:17.481Z,11.35
2022-11-10T09:59:39.392Z,11.34
2022-11-10T10:02:15.104Z,11.34
2022-11-10T10:03:38.157Z,11.47
2022-11-10T10:05:00.583Z,11.51
2022-11-10T10:06:23.189Z,11.61
2022-11-10T10:07:46.215Z,11.57
2022-11-10T10:09:25.032Z,11.26
2022-11-10T10:10:57.259Z,11.37
2022-11-10T10:12:38.893Z,11.28
2022-11-10T10:14:05.189Z,11.25
2022-11-10T10:15:46.430Z,11.26
2022-11-10T10:17:15.642Z,11.28
2022-11-10T10:18:57.645Z,11.44
2022-11-10T10:20:21.230Z,11.41
2022-11-10T10:22:01.636Z,11.44
2022-11-10T10:23:46.737Z,11.24
2022-11-10T10:24:49.908Z,11.21
2022-11-10T10:26:13.234Z,11.30
2022-11-10T10:27:35.313Z,11.34
2022-11-10T10:28:58.779Z,11.31
2022-11-10T10:30:20.671Z,11.37
2022-11-10T10:31:45.327Z,11.42
2022-11-10T10:33:19.919Z,11.26
2022-11-10T10:34:42.348Z,11.37
2022-11-10T10:36:05.421Z,11.39
2022-11-10T10:37:48.909Z,11.50
2022-11-10T10:39:15.555Z,11.54
2022-11-10T10:40:36.951Z,11.46
2022-11-10T10:41:59.843Z,11.52
2022-11-10T10:43:21.382Z,11.48
2022-11-10T10:44:45.610Z,11.68
2022-11-10T10:46:12.357Z,11.55
2022-11-10T10:47:37.480Z,11.44
2022-11-10T10:50:35.038Z,11.56
2022-11-10T10:52:03.490Z,11.68
2022-11-10T10:53:24.502Z,11.84
2022-11-10T10:54:44.876Z,11.78
2022-11-10T10:56:08.899Z,11.78
2022-11-10T10:57:30.706Z,11.76
2022-11-10T10:58:56.014Z,11.92
2022-11-10T11:00:21.451Z,11.82
2022-11-10T11:01:44.372Z,11.85
2022-11-10T11:03:10.077Z,11.88
2022-11-10T11:04:34.889Z,11.58
2022-11-10T11:06:04.699Z,11.59
2022-11-10T11:07:26.350Z,11.33
2022-11-10T11:09:02.301Z,11.02
2022-11-10T11:10:24.021Z,11.07
2022-11-10T11:11:51.738Z,11.25
2022-11-10T11:13:18.355Z,11.38
2022-11-10T11:14:45.763Z,11.20
2022-11-10T11:16:11.294Z,11.15
2022-11-10T11:17:31.740Z,11.14
2022-11-10T11:18:53.400Z,11.00
2022-11-10T11:20:17.289Z,11.04
2022-11-10T11:21:44.078Z,11.16
2022-11-10T11:23:20.752Z,11.05
2022-11-10T11:24:56.367Z,10.98
2022-11-10T11:26:25.187Z,10.97
2022-11-10T11:27:50.854Z,11.09
2022-11-10T11:29:17.052Z,11.07
2022-11-10T11:30:57.507Z,11.15
2022-11-10T11:32:38.845Z,11.11
2022-11-10T11:34:02.356Z,11.20
2022-11-10T11:35:32.312Z,11.22
2022-11-10T11:36:55.490Z,11.27
2022-11-10T11:38:19.274Z,11.20
2022-11-10T11:39:43.797Z,11.05
2022-11-10T11:41:14.271Z,11.15
2022-11-10T11:42:52.317Z,11.33
2022-11-10T11:44:22.292Z,10.99
2022-11-10T11:45:51.638Z,11.11
2022-11-10T11:47:20.131Z,11.04
2022-11-10T11:48:59.863Z,10.97
2022-11-10T11:50:26.109Z,10.83
2022-11-10T11:51:54.885Z,10.46
2022-11-10T11:53:18.177Z,10.56
2022-11-10T11:54:58.156Z,10.54
2022-11-10T11:56:23.053Z,10.47
2022-11-10T11:58:00.913Z,10.64
2022-11-10T11:59:39.204Z,10.69
2022-11-10T12:01:07.813Z,10.81
2022-11-10T12:02:34.435Z,10.74
2022-11-10T12:04:10.809Z,10.77
2022-11-10T12:05:45.633Z,10.88
2022-11-10T12:07:25.527Z,10.99
2022-11-10T12:08:52.123Z,10.96
2022-11-10T12:10:15.305Z,10.93
2022-11-10T12:11:41.235Z,10.87
2022-11-10T12:13:07.097Z,10.82
2022-11-10T12:14:42.281Z,10.83
2022-11-10T12:16:05.285Z,10.65
2022-11-10T12:17:37.213Z,10.55
2022-11-10T12:19:06.685Z,10.30
2022-11-10T12:20:35.702Z,10.17
2022-11-10T12:22:01.829Z,10.25
2022-11-10T12:23:25.251Z,10.55
2022-11-10T12:24:48.393Z,10.35
2022-11-10T12:26:12.949Z,10.06
2022-11-10T12:27:36.121Z,10.01
2022-11-10T12:29:13.574Z,10.21
2022-11-10T12:30:36.535Z,10.54
2022-11-10T12:33:26.673Z,10.45
2022-11-10T12:34:50.317Z,10.31
2022-11-10T12:36:14.569Z,10.58
2022-11-10T12:37:38.631Z,10.53
2022-11-10T12:39:20.020Z,10.62
2022-11-10T12:40:49.489Z,10.76
2022-11-10T12:42:11.821Z,10.77
2022-11-10T12:43:41.005Z,10.75
2022-11-10T12:45:04.389Z,10.75
2022-11-10T12:46:24.789Z,10.84
2022-11-10T12:47:47.356Z,10.77
2022-11-10T12:49:14.902Z,10.76
2022-11-10T12:50:47.229Z,10.82
2022-11-10T12:52:20.314Z,10.55
2022-11-10T12:53:42.907Z,10.48
2022-11-10T12:55:07.453Z,10.49
2022-11-10T12:56:30.753Z,10.37
2022-11-10T12:57:52.450Z,10.32
2022-11-10T12:59:14.792Z,10.30
2022-11-10T13:00:41.229Z,10.49
2022-11-10T13:02:04.530Z,10.33
2022-11-10T13:03:28.452Z,10.21
2022-11-10T13:04:56.077Z,10.27
2022-11-10T13:06:29.029Z,10.32
2022-11-10T13:07:52.120Z,10.47
2022-11-10T13:09:29.736Z,10.50
2022-11-10T13:10:53.057Z,10.47
2022-11-10T13:12:18.189Z,10.51
2022-11-10T13:13:52.154Z,10.44
2022-11-10T13:15:32.901Z,10.45
2022-11-10T13:16:56.273Z,10.46
2022-11-10T13:18:29.398Z,10.58
2022-11-10T13:19:51.887Z,10.58
2022-11-10T13:21:16.028Z,10.53
2022-11-10T13:22:43.904Z,10.58
2022-11-10T13:24:07.380Z,10.52
2022-11-10T13:25:40.144Z,10.54
2022-11-10T13:27:03.281Z,10.31
2022-11-10T13:28:27.560Z,10.32
2022-11-10T13:29:51.043Z,10.37
2022-11-10T13:31:30.459Z,10.27
2022-11-10T13:34:06.483Z,10.45
2022-11-10T13:35:29.357Z,10.35
2022-11-10T13:36:49.948Z,10.45
2022-11-10T13:38:30.854Z,10.38
2022-11-10T13:39:53.686Z,10.18
2022-11-10T13:41:20.061Z,10.30
2022-11-10T13:42:47.136Z,10.34
2022-11-10T13:44:28.174Z,10.57
2022-11-10T13:45:53.389Z,10.39
2022-11-10T13:47:20.592Z,10.27
2022-11-10T13:48:56.913Z,10.26
2022-11-10T13:50:27.370Z,10.34
2022-11-10T13:51:56.467Z,10.27
2022-11-10T13:53:24.130Z,10.24
2022-11-10T13:54:57.897Z,10.34
2022-11-10T13:56:27.305Z,10.10
2022-11-10T13:57:55.766Z,10.20
2022-11-10T13:59:19.219Z,10.20
2022-11-10T14:00:41.530Z,10.00
2022-11-10T14:02:20.864Z,10.03
2022-11-10T14:03:49.422Z,10.06
2022-11-10T14:05:13.519Z,10.11
2022-11-10T14:06:50.181Z,10.09
2022-11-10T14:08:14.105Z,10.20
2022-11-10T14:09:39.655Z,10.12
2022-11-10T14:11:02.158Z,10.26
2022-11-10T14:12:33.657Z,10.12
2022-11-10T14:13:57.110Z,10.15
2022-11-10T14:15:27.459Z,10.11
2022-11-10T14:16:52.868Z,10.20
2022-11-10T14:18:26.603Z,10.13
2022-11-10T14:19:49.219Z,10.07
2022-11-10T14:21:13.406Z,10.19
2022-11-10T14:22:42.636Z,10.18
2022-11-10T14:24:18.581Z,10.17
2022-11-10T14:25:43.635Z,10.09
2022-11-10T14:27:10.722Z,10.00
2022-11-10T14:28:34.168Z,10.05
2022-11-10T14:30:06.520Z,10.08
2022-11-10T14:31:27.658Z,10.04
2022-11-10T14:32:51.541Z,9.96
2022-11-10T14:34:13.954Z,10.10
2022-11-10T14:35:53.169Z,10.14
2022-11-10T14:37:15.743Z,10.05
2022-11-10T14:38:40.398Z,10.18
2022-11-10T14:40:04.624Z,10.03
2022-11-10T14:41:30.758Z,10.19
2022-11-10T14:42:52.959Z,10.26
2022-11-10T14:44:16.417Z,10.08
2022-11-10T14:45:39.270Z,10.18
2022-11-10T14:47:15.021Z,10.14
2022-11-10T14:48:37.749Z,10.22
2022-11-10T14:50:07.156Z,10.33
2022-11-10T14:51:30.586Z,10.35
2022-11-10T14:52:55.340Z,10.34
2022-11-10T14:54:19.189Z,10.14
2022-11-10T14:55:42.114Z,10.08
2022-11-10T14:57:06.099Z,10.21
2022-11-10T14:58:34.009Z,10.28
2022-11-10T14:59:58.443Z,10.30
2022-11-10T15:01:22.518Z,10.38
2022-11-10T15:02:44.865Z,10.35
2022-11-10T15:04:08.492Z,10.22
2022-11-10T15:05:31.003Z,10.27
2022-11-10T15:06:53.938Z,10.17
2022-11-10T15:08:16.976Z,10.23
2022-11-10T15:35:11.546Z,10.24
2022-11-10T15:36:34.988Z,10.41
2022-11-10T15:38:03.467Z,10.23
2022-11-10T15:39:25.910Z,10.18
2022-11-10T15:40:49.895Z,10.15
2022-11-10T15:42:13.524Z,10.23
2022-11-10T15:43:35.825Z,10.26
2022-11-10T15:44:59.594Z,10.18
2022-11-10T15:46:22.619Z,10.28
2022-11-10T15:47:44.518Z,10.19
2022-11-10T15:49:07.127Z,10.20
2022-11-10T15:50:28.699Z,10.26
2022-11-10T15:51:54.389Z,10.28
2022-11-10T15:53:19.207Z,10.20
2022-11-10T15:54:40.335Z,10.37
2022-11-10T15:56:02.101Z,10.45
2022-11-10T15:57:24.209Z,10.40
2022-11-10T15:58:47.563Z,10.37
2022-11-10T16:00:13.939Z,10.43
2022-11-10T16:01:35.549Z,10.12
2022-11-10T16:02:57.821Z,10.06
2022-11-10T16:04:19.602Z,10.21
2022-11-10T16:05:42.221Z,10.23
2022-11-10T16:07:04.240Z,10.16
2022-11-10T16:08:26.720Z,10.26
2022-11-10T16:09:51.637Z,10.14
2022-11-10T16:11:21.252Z,10.21
2022-11-10T16:12:43.139Z,10.20
2022-11-10T16:14:06.085Z,10.12
2022-11-10T16:15:27.137Z,10.05
2022-11-10T16:16:47.897Z,10.11
2022-11-10T16:18:23.092Z,10.17
2022-11-10T16:19:47.005Z,10.27
2022-11-10T16:21:16.855Z,10.37
2022-11-10T16:22:37.454Z,10.31
2022-11-10T16:23:59.564Z,10.16
2022-11-10T16:25:26.590Z,10.12
2022-11-10T16:26:45.322Z,10.29
2022-11-10T16:28:08.073Z,10.36
2022-11-10T16:29:31.433Z,10.33
2022-11-10T16:30:56.462Z,10.31
2022-11-10T16:32:18.306Z,10.28
2022-11-10T16:33:42.272Z,10.18
2022-11-10T16:35:04.266Z,10.23
2022-11-10T16:36:27.093Z,10.32
2022-11-10T16:37:49.200Z,10.32
2022-11-10T16:39:14.740Z,10.34
2022-11-10T16:40:38.203Z,10.34
2022-11-10T16:42:00.296Z,10.37
2022-11-10T16:43:22.915Z,10.33
2022-11-10T16:44:45.014Z,10.32
2022-11-10T16:46:08.887Z,10.40
2022-11-10T16:47:33.284Z,10.29
2022-11-10T16:48:58.824Z,10.26
2022-11-10T16:50:29.577Z,10.40
2022-11-10T16:51:51.685Z,10.35
2022-11-10T16:53:15.902Z,10.33
2022-11-10T16:54:37.992Z,10.36
2022-11-10T16:55:59.845Z,10.46
2022-11-10T16:57:21.838Z,10.52
2022-11-10T16:58:42.798Z,10.46
2022-11-10T17:00:04.741Z,10.48
2022-11-10T17:01:27.782Z,10.52
2022-11-10T17:02:51.803Z,10.55
2022-11-10T17:04:14.767Z,10.53
2022-11-10T17:05:36.508Z,10.28
2022-11-10T17:06:58.873Z,10.15
2022-11-10T17:08:21.562Z,10.27
2022-11-10T17:09:44.670Z,10.38
2022-11-10T17:11:08.447Z,10.33
2022-11-10T17:12:30.787Z,10.29
2022-11-10T17:13:52.378Z,10.33
2022-11-10T17:15:29.125Z,10.32
2022-11-10T17:16:52.096Z,10.32
2022-11-10T17:18:15.265Z,10.47
2022-11-10T17:19:37.228Z,10.39
2022-11-10T17:21:01.937Z,10.28
2022-11-10T17:22:23.713Z,10.37
2022-11-10T17:23:44.591Z,10.37
2022-11-10T17:25:07.602Z,10.35
2022-11-10T17:26:30.958Z,10.42
2022-11-10T17:27:54.308Z,10.43
2022-11-10T17:29:19.260Z,10.45
2022-11-10T17:30:41.628Z,10.45
2022-11-10T17:32:03.684Z,10.43
2022-11-10T17:33:25.583Z,10.45
2022-11-10T17:34:47.180Z,10.42
2022-11-10T17:36:17.003Z,10.36
2022-11-10T17:37:40.252Z,10.32
2022-11-10T17:39:02.153Z,10.19
2022-11-10T17:40:24.767Z,10.24
2022-11-10T17:41:47.386Z,10.34
2022-11-10T17:43:13.167Z,10.35
2022-11-10T17:44:34.912Z,10.38
2022-11-10T17:45:57.124Z,10.43
2022-11-10T17:47:18.666Z,10.27
2022-11-10T17:48:44.157Z,10.32
2022-11-10T17:50:07.419Z,10.31
2022-11-10T17:51:29.409Z,10.30
2022-11-10T17:52:51.682Z,10.32
2022-11-10T17:54:14.695Z,10.34
2022-11-10T17:55:42.393Z,10.37
2022-11-10T17:57:06.183Z,10.46
2022-11-10T17:58:27.996Z,10.52
2022-11-10T17:59:49.571Z,10.60
2022-11-10T18:01:16.064Z,10.66
2022-11-10T18:02:38.045Z,10.61
2022-11-10T18:04:01.409Z,10.67
2022-11-10T18:05:23.467Z,10.65
2022-11-10T18:06:46.351Z,10.64
2022-11-10T18:08:08.430Z,10.51
2022-11-10T18:09:30.136Z,10.60
2022-11-10T18:10:53.241Z,10.68
2022-11-10T18:12:15.128Z,10.61
2022-11-10T18:13:39.001Z,10.50
2022-11-10T18:15:01.097Z,10.56
2022-11-10T18:16:22.775Z,10.40
2022-11-10T18:17:43.839Z,10.38
2022-11-10T18:19:05.405Z,10.39
2022-11-10T18:20:30.425Z,10.42
2022-11-10T18:21:52.224Z,10.50
2022-11-10T18:23:14.316Z,10.54
2022-11-10T18:24:38.897Z,10.62
2022-11-10T18:26:05.089Z,10.55
2022-11-10T18:27:26.873Z,10.63
2022-11-10T18:28:49.690Z,10.41
2022-11-10T18:30:14.200Z,10.48
2022-11-10T18:31:36.088Z,10.49
2022-11-10T18:32:58.281Z,10.47
2022-11-10T18:34:18.914Z,10.52
2022-11-10T18:35:41.232Z,10.56
2022-11-10T18:37:02.898Z,10.53
2022-11-10T18:38:25.424Z,10.52
2022-11-10T18:39:47.939Z,10.50
2022-11-10T18:41:31.371Z,10.43
2022-11-10T18:43:05.927Z,10.46
2022-11-10T18:44:24.311Z,10.56
2022-11-10T18:45:46.087Z,10.56
2022-11-10T18:47:12.549Z,10.59
2022-11-10T18:48:37.415Z,10.55
2022-11-10T18:49:59.162Z,10.57
2022-11-10T18:51:20.842Z,10.61
2022-11-10T18:52:41.687Z,10.62
2022-11-10T18:54:03.683Z,10.66
2022-11-10T18:55:27.161Z,10.71
2022-11-10T18:56:48.728Z,10.75
2022-11-10T18:58:10.320Z,10.77
2022-11-10T18:59:31.343Z,10.79
2022-11-10T19:00:53.085Z,10.74
2022-11-10T19:02:15.644Z,10.73
2022-11-10T19:03:38.157Z,10.72
2022-11-10T19:04:59.836Z,10.68
2022-11-10T19:06:20.357Z,10.74
2022-11-10T19:07:44.240Z,10.70
2022-11-10T19:09:06.338Z,10.73
2022-11-10T19:10:28.230Z,10.75
2022-11-10T19:11:50.426Z,10.80
2022-11-10T19:13:12.514Z,10.80
2022-11-10T19:14:35.757Z,10.84
2022-11-10T19:15:59.421Z,10.77
2022-11-10T19:17:22.457Z,10.78
2022-11-10T19:18:43.824Z,10.74
2022-11-10T19:20:06.140Z,10.72
2022-11-10T19:21:28.448Z,10.74
2022-11-10T19:22:50.161Z,10.82
2022-11-10T19:24:12.493Z,10.85
2022-11-10T19:25:34.725Z,10.87
2022-11-10T19:26:55.997Z,10.85
2022-11-10T19:28:17.640Z,10.86
2022-11-10T19:29:38.509Z,10.90
2022-11-10T19:31:00.722Z,10.93
2022-11-10T19:32:24.832Z,10.91
2022-11-10T19:33:47.645Z,10.92
2022-11-10T19:35:11.179Z,10.95
2022-11-10T19:36:32.858Z,10.96
2022-11-10T19:37:54.033Z,10.95
2022-11-10T19:39:16.007Z,10.94
2022-11-10T19:40:43.124Z,10.98
2022-11-10T19:42:04.380Z,10.96
2022-11-10T19:43:28.056Z,10.92
2022-11-10T19:44:49.619Z,10.95
2022-11-10T19:46:14.243Z,10.90
2022-11-10T19:47:36.319Z,10.91
2022-11-10T19:48:58.217Z,10.91
2022-11-10T19:50:18.735Z,10.88
2022-11-10T19:51:40.313Z,10.74
2022-11-10T19:53:02.722Z,10.82
2022-11-10T19:54:24.504Z,10.85
2022-11-10T19:55:46.225Z,10.83
2022-11-10T19:57:08.918Z,10.81
2022-11-10T19:58:33.138Z,10.76
2022-11-10T19:59:54.992Z,10.82
2022-11-10T20:01:17.833Z,10.66
2022-11-10T20:02:45.203Z,10.72
2022-11-10T20:04:04.613Z,10.74
2022-11-10T20:05:28.005Z,10.77
2022-11-10T20:06:53.303Z,10.62
2022-11-10T20:08:17.177Z,10.73
2022-11-10T20:09:40.313Z,10.75
2022-11-10T20:11:07.808Z,10.53
2022-11-10T20:12:30.673Z,10.56
2022-11-10T20:13:57.789Z,10.59
2022-11-10T20:15:19.678Z,10.66
2022-11-10T20:16:41.662Z,10.65
2022-11-10T20:18:04.471Z,10.69
2022-11-10T20:19:25.331Z,10.62
2022-11-10T20:20:47.532Z,10.61
2022-11-10T20:22:08.406Z,10.55
2022-11-10T20:23:30.067Z,10.56
2022-11-10T20:24:52.713Z,10.62
2022-11-10T20:26:15.827Z,10.66
2022-11-10T20:27:37.717Z,10.72
2022-11-10T20:28:59.602Z,10.65
2022-11-10T20:30:23.844Z,10.67
2022-11-10T20:31:45.469Z,10.73
2022-11-10T20:33:06.720Z,10.64
2022-11-10T20:34:28.721Z,10.69
2022-11-10T20:35:51.967Z,10.64
2022-11-10T20:37:14.064Z,10.73
2022-11-10T20:38:36.161Z,10.53
2022-11-10T20:39:59.302Z,10.65
2022-11-10T20:41:23.131Z,10.71
2022-11-10T20:42:45.156Z,10.69
2022-11-10T20:44:06.847Z,10.68
2022-11-10T20:45:27.992Z,10.73
2022-11-10T20:46:54.628Z,10.70
2022-11-10T20:48:13.543Z,10.70
2022-11-10T20:49:35.161Z,10.76
2022-11-10T20:50:58.687Z,10.81
2022-11-10T20:52:21.340Z,10.74
2022-11-10T20:53:43.080Z,10.69
2022-11-10T20:55:09.266Z,10.79
2022-11-10T20:56:33.331Z,10.76
2022-11-10T20:57:54.298Z,10.77
2022-11-10T20:59:15.853Z,10.83
2022-11-10T21:00:36.604Z,10.64
2022-11-10T21:01:58.552Z,10.67
2022-11-10T21:03:23.143Z,10.69
2022-11-10T21:04:45.714Z,10.73
2022-11-10T21:06:07.945Z,10.74
2022-11-10T21:07:30.221Z,10.67
2022-11-10T21:08:55.010Z,10.79
2022-11-10T21:10:17.086Z,10.85
2022-11-10T21:11:56.347Z,10.79
2022-11-10T21:13:18.444Z,10.88
2022-11-10T21:14:41.803Z,10.85
2022-11-10T21:16:04.978Z,10.89
2022-11-10T21:17:27.450Z,10.94
2022-11-10T21:18:49.231Z,10.93
2022-11-10T21:20:11.764Z,10.85
2022-11-10T21:21:36.157Z,10.87
2022-11-10T21:23:03.239Z,10.91
2022-11-10T21:24:22.643Z,10.98
2022-11-10T21:25:46.758Z,11.02
2022-11-10T21:27:10.274Z,11.05
2022-11-10T21:28:33.846Z,10.96
2022-11-10T21:29:55.524Z,10.91
2022-11-10T21:31:20.127Z,10.94
2022-11-10T21:32:42.120Z,11.00
2022-11-10T21:34:04.725Z,10.97
2022-11-10T21:35:25.885Z,10.96
2022-11-10T21:36:48.302Z,10.98
2022-11-10T21:38:17.020Z,11.00
2022-11-10T21:39:39.304Z,10.80
2022-11-10T21:41:01.803Z,10.88
2022-11-10T21:42:23.838Z,10.91
2022-11-10T21:43:46.212Z,10.96
2022-11-10T21:45:09.305Z,11.01
2022-11-10T21:46:34.254Z,11.01
2022-11-10T21:47:57.959Z,11.05
2022-11-10T21:49:20.639Z,11.06
2022-11-10T21:50:42.632Z,11.06
2022-11-10T21:52:04.112Z,11.07
2022-11-10T21:53:27.809Z,11.03
2022-11-10T21:54:49.560Z,11.00
2022-11-10T21:56:13.083Z,11.04
2022-11-10T21:57:34.103Z,11.05
2022-11-10T21:58:56.445Z,11.04
2022-11-10T22:00:18.459Z,11.03
2022-11-10T22:01:40.002Z,10.97
2022-11-10T22:03:02.873Z,10.97
2022-11-10T22:04:24.552Z,10.74
2022-11-10T22:05:46.053Z,10.69
2022-11-10T22:07:24.519Z,10.84
2022-11-10T22:08:46.857Z,10.86
2022-11-10T22:10:27.510Z,10.91
2022-11-10T22:12:07.069Z,10.76
2022-11-10T22:13:48.994Z,10.81
2022-11-10T22:15:29.883Z,10.71
2022-11-10T22:17:11.405Z,10.65
2022-11-10T22:18:42.901Z,10.62
2022-11-10T22:20:04.940Z,10.58
2022-11-10T22:21:27.213Z,10.53
2022-11-10T22:22:50.525Z,10.67
2022-11-10T22:24:27.281Z,10.69
2022-11-10T22:25:50.527Z,10.83
2022-11-10T22:27:14.294Z,10.85
2022-11-10T22:28:36.799Z,10.87
2022-11-10T22:29:58.801Z,10.81
2022-11-10T22:31:19.750Z,10.75
2022-11-10T22:32:40.384Z,10.80
2022-11-10T22:34:05.009Z,10.67
2022-11-10T22:35:45.142Z,10.63
2022-11-10T22:37:06.981Z,10.62
2022-11-10T22:38:29.139Z,10.63
2022-11-10T22:40:09.713Z,10.63
2022-11-10T22:41:53.953Z,10.78
2022-11-10T22:43:33.178Z,10.85
2022-11-10T22:44:54.243Z,10.77
2022-11-10T22:46:15.202Z,10.79
2022-11-10T22:47:54.146Z,10.76
2022-11-10T22:49:17.861Z,10.85
2022-11-10T22:50:43.558Z,10.92
2022-11-10T22:52:11.769Z,10.91
2022-11-10T22:53:35.315Z,10.75
2022-11-10T22:54:58.389Z,10.74
2022-11-10T22:56:20.534Z,10.79
2022-11-10T22:57:42.255Z,10.62
2022-11-10T22:59:06.131Z,10.71
2022-11-10T23:00:29.689Z,10.77
2022-11-10T23:01:53.348Z,10.84
2022-11-10T23:03:16.260Z,10.77
2022-11-10T23:04:37.980Z,10.87
2022-11-10T23:06:00.078Z,10.77
2022-11-10T23:07:21.946Z,10.72
2022-11-10T23:08:44.565Z,10.76
2022-11-10T23:10:06.142Z,10.81
2022-11-10T23:11:28.245Z,10.75
2022-11-10T23:12:49.906Z,10.68
2022-11-10T23:14:12.953Z,10.80
2022-11-10T23:15:36.084Z,10.79
2022-11-10T23:16:59.995Z,10.64
2022-11-10T23:18:21.793Z,10.65
2022-11-10T23:19:42.818Z,10.72
2022-11-10T23:21:06.992Z,10.76
2022-11-10T23:22:27.837Z,10.74
2022-11-10T23:23:55.243Z,10.75
2022-11-10T23:25:18.178Z,10.76
2022-11-10T23:26:39.137Z,10.58
2022-11-10T23:28:01.443Z,10.56
2022-11-10T23:29:23.055Z,10.53
2022-11-10T23:30:46.042Z,10.62
2022-11-10T23:32:08.348Z,10.73
2022-11-10T23:33:33.011Z,10.78
2022-11-10T23:34:53.482Z,10.84
2022-11-10T23:36:15.903Z,10.88
2022-11-10T23:37:38.001Z,10.85
2022-11-10T23:38:59.993Z,10.87
2022-11-10T23:40:21.672Z,10.87
2022-11-10T23:41:43.351Z,10.80
2022-11-10T23:43:06.002Z,10.81
2022-11-10T23:44:27.858Z,10.75
2022-11-10T23:46:06.824Z,10.74
2022-11-10T23:47:14.132Z,10.71
2022-11-10T23:48:36.761Z,10.71
2022-11-10T23:49:59.067Z,10.52
2022-11-10T23:51:20.110Z,10.54
2022-11-10T23:52:41.624Z,10.52
2022-11-10T23:54:03.581Z,10.53
2022-11-10T23:55:28.642Z,10.65
2022-11-10T23:56:52.246Z,10.73
2022-11-10T23:58:14.050Z,10.75
2022-11-10T23:59:35.832Z,10.71
